Terminal Aerodrome Forecast
Issued by NWS

Current Version | Previous Version | Text Only | Print | Product List | Glossary On
Versions: 1 2 3 4 5 6 7 8 9 10 11 12 13 14 15 16 17 18 19 20 21 22 23 24 25 26 27 28 29 30 31 32 33 34 35 36 37 38 39
000
FTUS44 KEWX 250603 AAA
TAFSSF
TAF AMD
KSSF 250603Z 2506/2606 14009KT P6SM SCT015 SCT030
     FM250900 14007KT 4SM BR OVC007
     FM251500 15012KT P6SM BKN015
      TEMPO 2515/2519 4SM TSRA BR BKN015CB
     FM251900 16015G30KT 6SM TSRA BKN035CB
     FM252350 14010KT P6SM BKN035=

USA.gov is the U.S. government's official web portal to all federal, state and local government web resources and services.